createdAt,value
2023-04-10T00:01:12.645Z,100.00
2023-04-10T00:04:00.963Z,100.00
2023-04-10T00:06:34.857Z,100.00
2023-04-10T00:09:02.870Z,100.00
2023-04-10T00:11:31.030Z,100.00
2023-04-10T00:14:01.439Z,100.00
2023-04-10T00:16:32.326Z,100.00
2023-04-10T00:19:01.934Z,100.00
2023-04-10T00:21:41.676Z,100.00
2023-04-10T00:24:09.858Z,100.00
2023-04-10T00:26:38.829Z,100.00
2023-04-10T00:29:06.836Z,100.00
2023-04-10T00:31:50.026Z,100.00
2023-04-10T00:34:18.169Z,100.00
2023-04-10T00:36:48.006Z,100.00
2023-04-10T00:39:15.920Z,100.00
2023-04-10T00:41:48.970Z,100.00
2023-04-10T00:44:17.682Z,100.00
2023-04-10T00:46:45.894Z,100.00
2023-04-10T00:49:14.705Z,100.00
2023-04-10T00:51:43.774Z,100.00
2023-04-10T00:54:16.974Z,100.00
2023-04-10T00:56:47.158Z,100.00
2023-04-10T00:59:15.018Z,100.00
2023-04-10T01:01:44.730Z,100.00
2023-04-10T01:04:14.141Z,100.00
2023-04-10T01:06:51.890Z,100.00
2023-04-10T01:09:48.453Z,100.00
2023-04-10T01:12:44.005Z,100.00
2023-04-10T01:15:14.041Z,100.00
2023-04-10T01:17:56.420Z,100.00
2023-04-10T01:20:26.306Z,100.00
2023-04-10T01:23:21.997Z,100.00
2023-04-10T01:26:23.958Z,100.00
2023-04-10T01:29:01.731Z,100.00
2023-04-10T01:31:43.105Z,100.00
2023-04-10T01:34:20.121Z,100.00
2023-04-10T01:36:55.472Z,100.00
2023-04-10T01:39:23.340Z,100.00
2023-04-10T01:41:52.863Z,100.00
2023-04-10T01:44:26.204Z,100.00
2023-04-10T01:46:56.008Z,100.00
2023-04-10T01:49:28.394Z,100.00
2023-04-10T01:52:03.564Z,100.00
2023-04-10T01:54:32.090Z,100.00
2023-04-10T01:57:00.602Z,100.00
2023-04-10T01:59:29.619Z,100.00
2023-04-10T02:02:01.413Z,100.00
2023-04-10T02:04:30.592Z,100.00
2023-04-10T02:07:27.128Z,100.00
2023-04-10T02:10:10.830Z,100.00
2023-04-10T02:12:57.152Z,100.00
2023-04-10T02:15:30.917Z,100.00
2023-04-10T02:17:59.801Z,100.00
2023-04-10T02:20:27.682Z,100.00
2023-04-10T02:22:59.691Z,100.00
2023-04-10T02:25:27.710Z,100.00
2023-04-10T02:27:55.561Z,100.00
2023-04-10T02:30:24.885Z,100.00
2023-04-10T02:32:53.770Z,100.00
2023-04-10T02:35:22.263Z,100.00
2023-04-10T02:37:50.772Z,100.00
2023-04-10T02:40:19.292Z,100.00
2023-04-10T02:42:54.411Z,100.00
2023-04-10T02:45:22.989Z,100.00
2023-04-10T02:47:51.103Z,100.00
2023-04-10T02:50:20.994Z,100.00
2023-04-10T02:52:49.025Z,100.00
2023-04-10T02:55:17.874Z,100.00
2023-04-10T02:57:46.424Z,100.00
2023-04-10T03:00:15.654Z,100.00
2023-04-10T03:03:10.711Z,100.00
2023-04-10T03:05:49.580Z,100.00
2023-04-10T03:08:19.382Z,100.00
2023-04-10T03:10:50.535Z,100.00
2023-04-10T03:13:20.491Z,100.00
2023-04-10T03:15:48.556Z,100.00
2023-04-10T03:18:16.706Z,100.00
2023-04-10T03:20:48.635Z,100.00
2023-04-10T03:23:17.071Z,100.00
2023-04-10T03:25:45.043Z,100.00
2023-04-10T03:28:13.169Z,100.00
2023-04-10T03:30:41.645Z,100.00
2023-04-10T03:33:10.037Z,100.00
2023-04-10T03:35:38.075Z,100.00
2023-04-10T03:38:08.006Z,100.00
2023-04-10T03:40:37.879Z,100.00
2023-04-10T03:43:06.325Z,100.00
2023-04-10T03:45:34.679Z,100.00
2023-04-10T03:48:04.321Z,100.00
2023-04-10T03:50:39.886Z,100.00
2023-04-10T03:53:08.844Z,100.00
2023-04-10T03:55:38.712Z,100.00
2023-04-10T03:58:08.347Z,100.00
2023-04-10T04:00:36.676Z,100.00
2023-04-10T04:03:24.105Z,100.00
2023-04-10T04:06:12.700Z,100.00
2023-04-10T04:08:49.328Z,100.00
2023-04-10T04:11:38.704Z,100.00
2023-04-10T04:14:34.472Z,100.00
2023-04-10T04:17:20.930Z,100.00
2023-04-10T04:20:06.095Z,100.00
2023-04-10T04:22:42.886Z,100.00
2023-04-10T04:25:35.949Z,100.00
2023-04-10T04:28:23.023Z,100.00
2023-04-10T04:31:18.868Z,100.00
2023-04-10T04:34:11.633Z,100.00
2023-04-10T04:36:43.806Z,100.00
2023-04-10T04:39:35.551Z,100.00
2023-04-10T04:42:32.966Z,100.00
2023-04-10T04:45:21.697Z,100.00
2023-04-10T04:48:10.857Z,100.00
2023-04-10T04:50:53.596Z,100.00
2023-04-10T04:53:41.143Z,100.00
2023-04-10T04:56:20.797Z,100.00
2023-04-10T04:59:09.140Z,100.00
2023-04-10T05:02:06.778Z,100.00
2023-04-10T05:04:55.444Z,100.00
2023-04-10T05:07:41.804Z,100.00
2023-04-10T05:10:17.992Z,100.00
2023-04-10T05:13:04.547Z,100.00
2023-04-10T05:15:49.214Z,100.00
2023-04-10T05:18:46.809Z,100.00
2023-04-10T05:21:37.627Z,100.00
2023-04-10T05:24:26.826Z,100.00
2023-04-10T05:27:15.448Z,100.00
2023-04-10T05:30:09.021Z,100.00
2023-04-10T05:32:56.407Z,100.00
2023-04-10T05:35:56.980Z,100.00
2023-04-10T05:38:54.286Z,100.00
2023-04-10T05:41:48.763Z,100.00
2023-04-10T05:44:30.358Z,100.00
2023-04-10T05:47:03.523Z,100.00
2023-04-10T05:49:55.125Z,100.00
2023-04-10T05:52:43.845Z,100.00
2023-04-10T05:55:24.039Z,100.00
2023-04-10T05:57:56.569Z,100.00
2023-04-10T06:00:37.383Z,100.00
2023-04-10T06:03:31.882Z,100.00
2023-04-10T06:06:02.721Z,100.00
2023-04-10T06:08:32.040Z,100.00
2023-04-10T06:11:00.730Z,100.00
2023-04-10T06:13:29.461Z,100.00
2023-04-10T06:16:19.257Z,100.00
2023-04-10T06:18:47.916Z,100.00
2023-04-10T06:21:15.746Z,100.00
2023-04-10T06:23:44.938Z,100.00
2023-04-10T06:26:12.792Z,100.00
2023-04-10T06:28:41.096Z,100.00
2023-04-10T06:31:09.157Z,100.00
2023-04-10T06:33:38.015Z,100.00
2023-04-10T06:36:08.698Z,100.00
2023-04-10T06:38:42.255Z,100.00
2023-04-10T06:41:11.644Z,100.00
2023-04-10T06:43:41.103Z,100.00
2023-04-10T06:46:09.264Z,100.00
2023-04-10T06:48:37.200Z,100.00
2023-04-10T06:51:07.679Z,100.00
2023-04-10T06:53:35.856Z,100.00
2023-04-10T06:56:08.222Z,100.00
2023-04-10T06:58:44.436Z,100.00
2023-04-10T07:01:12.528Z,100.00
2023-04-10T07:03:40.438Z,100.00
2023-04-10T07:06:14.212Z,100.00
2023-04-10T07:08:55.826Z,100.00
2023-04-10T07:11:24.248Z,100.00
2023-04-10T07:14:46.056Z,100.00
2023-04-10T07:17:14.249Z,100.00
2023-04-10T07:19:43.162Z,100.00
2023-04-10T07:22:11.637Z,100.00
2023-04-10T07:24:41.875Z,100.00
2023-04-10T07:27:09.693Z,100.00
2023-04-10T07:29:37.473Z,100.00
2023-04-10T07:32:06.285Z,100.00
2023-04-10T07:34:34.573Z,100.00
2023-04-10T07:37:05.999Z,100.00
2023-04-10T07:39:34.033Z,100.00
2023-04-10T07:42:02.065Z,100.00
2023-04-10T07:44:30.573Z,100.00
2023-04-10T07:46:59.015Z,100.00
2023-04-10T07:49:27.253Z,100.00
2023-04-10T07:51:55.453Z,100.00
2023-04-10T07:54:23.286Z,100.00
2023-04-10T07:56:54.880Z,100.00
2023-04-10T07:59:22.774Z,100.00
2023-04-10T08:01:51.106Z,100.00
2023-04-10T08:04:22.099Z,100.00
2023-04-10T08:06:50.658Z,100.00
2023-04-10T08:09:18.519Z,100.00
2023-04-10T08:11:46.998Z,100.00
2023-04-10T08:14:18.588Z,100.00
2023-04-10T08:16:52.888Z,100.00
2023-04-10T08:19:22.568Z,100.00
2023-04-10T08:21:50.831Z,100.00
2023-04-10T08:24:22.662Z,100.00
2023-04-10T08:27:10.384Z,100.00
2023-04-10T08:29:39.921Z,100.00
2023-04-10T08:32:08.212Z,100.00
2023-04-10T08:34:36.092Z,100.00
2023-04-10T08:37:10.579Z,100.00
2023-04-10T08:39:40.375Z,100.00
2023-04-10T08:42:13.108Z,100.00
2023-04-10T08:44:43.248Z,100.00
2023-04-10T08:47:11.103Z,100.00
2023-04-10T08:49:49.288Z,100.00
2023-04-10T08:52:25.749Z,100.00
2023-04-10T08:54:56.790Z,100.00
2023-04-10T08:57:26.870Z,100.00
2023-04-10T08:59:54.926Z,100.00
2023-04-10T09:02:26.483Z,100.00
2023-04-10T09:04:55.501Z,100.00
2023-04-10T09:07:23.633Z,100.00
2023-04-10T09:09:52.013Z,100.00
2023-04-10T09:12:22.499Z,100.00
2023-04-10T09:14:53.472Z,100.00
2023-04-10T09:17:29.554Z,100.00
2023-04-10T09:20:02.322Z,100.00
2023-04-10T09:22:32.190Z,100.00
2023-04-10T09:25:08.293Z,100.00
2023-04-10T09:27:38.556Z,100.00
2023-04-10T09:30:08.503Z,100.00
2023-04-10T09:32:41.776Z,100.00
2023-04-10T09:35:12.392Z,100.00
2023-04-10T09:37:41.679Z,100.00
2023-04-10T09:40:27.152Z,100.00
2023-04-10T09:42:56.914Z,100.00
2023-04-10T09:45:24.911Z,98.74
2023-04-10T09:48:07.494Z,98.13
2023-04-10T09:50:39.539Z,98.53
2023-04-10T09:53:16.644Z,96.19
2023-04-10T09:55:48.350Z,94.96
2023-04-10T09:58:17.037Z,92.84
2023-04-10T10:00:48.991Z,91.22
2023-04-10T10:03:21.163Z,89.65
2023-04-10T10:05:50.426Z,90.32
2023-04-10T10:08:26.224Z,89.94
2023-04-10T10:10:57.292Z,89.90
2023-04-10T10:13:29.416Z,89.80
2023-04-10T10:16:38.578Z,90.27
2023-04-10T10:20:02.327Z,88.72
2023-04-10T10:22:38.898Z,88.18
2023-04-10T10:25:07.727Z,87.37
2023-04-10T10:27:37.363Z,87.13
2023-04-10T10:30:16.415Z,86.16
2023-04-10T10:32:54.779Z,85.15
2023-04-10T10:35:24.571Z,82.71
2023-04-10T10:37:54.872Z,81.68
2023-04-10T10:40:29.961Z,81.68
2023-04-10T10:43:05.352Z,82.80
2023-04-10T10:45:36.655Z,84.21
2023-04-10T10:48:04.890Z,84.14
2023-04-10T10:50:56.925Z,83.23
2023-04-10T10:53:39.077Z,82.43
2023-04-10T10:56:22.588Z,81.88
2023-04-10T10:58:56.303Z,80.89
2023-04-10T11:01:24.591Z,79.99
2023-04-10T11:03:53.776Z,80.11
2023-04-10T11:06:22.863Z,80.83
2023-04-10T11:08:55.369Z,79.56
2023-04-10T11:11:25.974Z,77.75
2023-04-10T11:13:57.504Z,76.71
2023-04-10T11:16:36.662Z,75.88
2023-04-10T11:22:00.614Z,75.31
2023-04-10T11:24:30.029Z,73.46
2023-04-10T11:26:59.120Z,74.59
2023-04-10T11:29:27.267Z,73.55
2023-04-10T11:31:58.619Z,72.89
2023-04-10T11:34:33.616Z,73.72
2023-04-10T11:37:04.445Z,71.82
2023-04-10T11:39:33.124Z,72.60
2023-04-10T11:42:02.016Z,72.02
2023-04-10T11:44:36.816Z,72.13
2023-04-10T11:47:05.090Z,72.88
2023-04-10T11:49:34.380Z,71.73
2023-04-10T11:52:03.309Z,71.43
2023-04-10T11:54:32.558Z,71.07
2023-04-10T11:57:03.967Z,72.04
2023-04-10T11:59:33.299Z,74.50
2023-04-10T12:02:09.720Z,75.85
2023-04-10T12:04:38.465Z,78.51
2023-04-10T12:07:08.397Z,80.51
2023-04-10T12:09:36.599Z,82.77
2023-04-10T12:12:06.719Z,85.27
2023-04-10T12:14:39.932Z,87.64
2023-04-10T12:17:09.533Z,89.64
2023-04-10T12:19:53.228Z,91.92
2023-04-10T12:22:21.823Z,92.18
2023-04-10T12:24:53.728Z,91.35
2023-04-10T12:27:29.068Z,89.55
2023-04-10T12:29:58.211Z,89.53
2023-04-10T12:32:29.585Z,90.43
2023-04-10T12:34:58.635Z,90.31
2023-04-10T12:37:49.663Z,89.74
2023-04-10T12:40:18.336Z,89.67
2023-04-10T12:42:46.418Z,89.75
2023-04-10T12:45:15.370Z,90.38
2023-04-10T12:47:48.053Z,91.49
2023-04-10T12:50:19.263Z,92.72
2023-04-10T12:53:02.551Z,93.59
2023-04-10T12:55:31.233Z,94.72
2023-04-10T12:58:17.338Z,95.59
2023-04-10T13:00:45.608Z,95.76
2023-04-10T13:03:14.263Z,96.60
2023-04-10T13:05:42.504Z,96.42
2023-04-10T13:08:10.640Z,96.29
2023-04-10T13:10:38.869Z,96.37
2023-04-10T13:13:08.201Z,96.28
2023-04-10T13:15:36.873Z,96.15
2023-04-10T13:18:07.309Z,94.98
2023-04-10T13:20:36.231Z,92.34
2023-04-10T13:23:04.843Z,90.81
2023-04-10T13:25:33.870Z,89.29
2023-04-10T13:28:02.399Z,88.46
2023-04-10T13:30:31.367Z,88.18
2023-04-10T13:32:59.670Z,88.80
2023-04-10T13:35:27.670Z,90.03
2023-04-10T13:37:55.877Z,90.64
2023-04-10T13:40:27.529Z,89.52
2023-04-10T13:42:55.795Z,88.91
2023-04-10T13:45:23.634Z,88.60
2023-04-10T13:47:52.632Z,86.38
2023-04-10T13:50:20.687Z,85.45
2023-04-10T13:52:52.214Z,84.40
2023-04-10T13:55:21.951Z,83.57
2023-04-10T13:57:49.922Z,82.58
2023-04-10T14:00:18.513Z,82.50
2023-04-10T14:02:55.108Z,83.48
2023-04-10T14:05:24.446Z,84.22
2023-04-10T14:07:56.811Z,85.31
2023-04-10T14:10:24.908Z,86.27
2023-04-10T14:12:52.777Z,86.87
2023-04-10T14:15:21.317Z,86.71
2023-04-10T14:17:49.674Z,86.00
2023-04-10T14:20:17.756Z,85.74
2023-04-10T14:22:47.845Z,86.28
2023-04-10T14:25:16.333Z,86.62
2023-04-10T14:27:44.745Z,86.13
2023-04-10T14:30:13.933Z,85.88
2023-04-10T14:32:42.495Z,86.11
2023-04-10T14:35:11.815Z,85.58
2023-04-10T14:37:39.845Z,84.67
2023-04-10T14:40:08.906Z,82.72
2023-04-10T14:42:37.157Z,81.39
2023-04-10T14:45:10.829Z,80.21
2023-04-10T14:47:40.555Z,79.79
2023-04-10T14:50:09.071Z,77.63
2023-04-10T14:52:37.280Z,76.07
2023-04-10T14:55:05.865Z,76.00
2023-04-10T14:57:38.954Z,75.71
2023-04-10T15:00:08.124Z,75.42
2023-04-10T15:02:38.524Z,74.83
2023-04-10T15:05:07.995Z,74.41
2023-04-10T15:07:36.908Z,74.22
2023-04-10T15:10:05.500Z,74.20
2023-04-10T15:12:43.500Z,74.27
2023-04-10T15:15:13.622Z,73.95
2023-04-10T15:17:41.597Z,74.31
2023-04-10T15:20:12.128Z,74.86
2023-04-10T15:22:42.562Z,75.14
2023-04-10T15:25:13.639Z,75.14
2023-04-10T15:27:42.960Z,74.93
2023-04-10T15:30:12.439Z,75.25
2023-04-10T15:32:44.758Z,75.43
2023-04-10T15:35:12.692Z,75.39
2023-04-10T15:37:40.826Z,74.91
2023-04-10T15:40:10.580Z,74.79
2023-04-10T15:42:38.560Z,74.52
2023-04-10T15:45:06.958Z,74.20
2023-04-10T15:47:35.455Z,74.22
2023-04-10T15:50:05.625Z,75.39
2023-04-10T15:52:34.288Z,77.00
2023-04-10T15:55:02.629Z,77.75
2023-04-10T15:57:32.838Z,78.37
2023-04-10T16:00:02.321Z,79.44
2023-04-10T16:02:33.526Z,80.09
2023-04-10T16:05:05.038Z,80.83
2023-04-10T16:07:36.421Z,81.79
2023-04-10T16:10:05.981Z,82.34
2023-04-10T16:12:38.925Z,82.94
2023-04-10T16:15:08.451Z,83.26
2023-04-10T16:17:36.492Z,83.50
2023-04-10T16:20:06.713Z,84.04
2023-04-10T16:22:36.796Z,84.36
2023-04-10T16:25:06.022Z,84.71
2023-04-10T16:27:34.340Z,84.96
2023-04-10T16:30:02.760Z,85.31
2023-04-10T16:32:34.422Z,85.74
2023-04-10T16:35:02.470Z,85.87
2023-04-10T16:37:31.356Z,85.90
2023-04-10T16:40:05.646Z,86.25
2023-04-10T16:42:35.472Z,86.34
2023-04-10T16:45:03.593Z,86.74
2023-04-10T16:47:32.433Z,86.88
2023-04-10T16:50:00.491Z,87.08
2023-04-10T16:52:32.690Z,87.39
2023-04-10T16:55:00.729Z,87.57
2023-04-10T16:57:29.712Z,87.86
2023-04-10T16:59:59.226Z,87.92
2023-04-10T17:02:28.463Z,87.85
2023-04-10T17:04:56.729Z,87.95
2023-04-10T17:07:30.348Z,88.02
2023-04-10T17:09:59.272Z,88.14
2023-04-10T17:12:27.316Z,88.21
2023-04-10T17:15:03.087Z,88.35
2023-04-10T17:17:34.246Z,88.46
2023-04-10T17:20:02.585Z,88.53
2023-04-10T17:22:31.474Z,88.50
2023-04-10T17:25:00.345Z,88.53
2023-04-10T17:27:28.644Z,88.61
2023-04-10T17:29:59.674Z,88.63
2023-04-10T17:32:29.572Z,88.65
2023-04-10T17:34:57.644Z,88.86
2023-04-10T17:37:26.195Z,89.03
2023-04-10T17:39:54.658Z,89.13
2023-04-10T17:42:24.480Z,89.16
2023-04-10T17:44:53.027Z,89.35
2023-04-10T17:47:21.059Z,89.49
2023-04-10T17:49:49.639Z,89.58
2023-04-10T17:52:17.713Z,89.75
2023-04-10T17:54:49.018Z,89.95
2023-04-10T17:57:16.830Z,90.10
2023-04-10T17:59:48.927Z,90.40
2023-04-10T18:02:18.280Z,90.44
2023-04-10T18:04:46.288Z,90.50
2023-04-10T18:07:20.676Z,90.69
2023-04-10T18:09:48.732Z,90.88
2023-04-10T18:12:16.615Z,91.00
2023-04-10T18:14:48.613Z,91.06
2023-04-10T18:17:17.161Z,91.03
2023-04-10T18:19:45.580Z,91.11
2023-04-10T18:22:14.890Z,91.37
2023-04-10T18:24:46.917Z,91.62
2023-04-10T18:27:18.146Z,91.77
2023-04-10T18:29:46.758Z,92.09
2023-04-10T18:32:14.704Z,92.13
2023-04-10T18:34:46.105Z,92.40
2023-04-10T18:37:14.221Z,92.55
2023-04-10T18:39:42.063Z,92.68
2023-04-10T18:42:13.371Z,92.83
2023-04-10T18:44:41.311Z,92.90
2023-04-10T18:47:11.477Z,93.03
2023-04-10T18:49:39.601Z,93.13
2023-04-10T18:52:13.193Z,93.14
2023-04-10T18:54:44.472Z,93.37
2023-04-10T18:57:13.474Z,93.55
2023-04-10T18:59:46.434Z,93.75
2023-04-10T19:02:14.530Z,93.86
2023-04-10T19:04:42.685Z,94.02
2023-04-10T19:07:11.230Z,94.22
2023-04-10T19:09:39.339Z,94.39
2023-04-10T19:12:07.347Z,94.58
2023-04-10T19:14:38.299Z,94.72
2023-04-10T19:17:07.359Z,94.70
2023-04-10T19:19:35.226Z,94.97
2023-04-10T19:22:07.950Z,94.87
2023-04-10T19:24:36.042Z,95.04
2023-04-10T19:27:04.014Z,95.26
2023-04-10T19:29:32.108Z,95.43
2023-04-10T19:32:58.161Z,95.64
2023-04-10T19:35:26.455Z,95.83
2023-04-10T19:37:57.972Z,95.97
2023-04-10T19:40:32.873Z,96.26
2023-04-10T19:43:01.978Z,96.48
2023-04-10T19:45:32.471Z,96.65
2023-04-10T19:48:01.136Z,96.70
2023-04-10T19:50:30.651Z,96.63
2023-04-10T19:53:00.024Z,96.59
2023-04-10T19:55:27.994Z,96.48
2023-04-10T19:57:55.978Z,96.48
2023-04-10T20:00:27.361Z,96.59
2023-04-10T20:03:08.490Z,96.62
2023-04-10T20:05:36.571Z,96.61
2023-04-10T20:08:05.681Z,96.66
2023-04-10T20:10:35.685Z,96.79
2023-04-10T20:13:03.807Z,97.00
2023-04-10T20:15:34.038Z,96.97
2023-04-10T20:18:02.973Z,97.16
2023-04-10T20:20:31.027Z,97.29
2023-04-10T20:23:03.668Z,97.32
2023-04-10T20:25:32.200Z,97.32
2023-04-10T20:28:00.220Z,97.24
2023-04-10T20:30:37.998Z,97.22
2023-04-10T20:33:06.043Z,97.21
2023-04-10T20:35:34.242Z,97.09
2023-04-10T20:38:02.132Z,97.37
2023-04-10T20:40:30.510Z,97.56
2023-04-10T20:43:02.251Z,97.57
2023-04-10T20:45:31.247Z,97.57
2023-04-10T20:47:59.925Z,97.49
2023-04-10T20:50:28.555Z,97.38
2023-04-10T20:52:56.495Z,97.04
2023-04-10T20:55:24.369Z,96.72
2023-04-10T20:57:53.265Z,96.51
2023-04-10T21:00:21.266Z,96.45
2023-04-10T21:02:49.591Z,96.58
2023-04-10T21:05:18.047Z,96.65
2023-04-10T21:07:45.957Z,96.45
2023-04-10T21:10:14.014Z,96.46
2023-04-10T21:12:42.518Z,96.46
2023-04-10T21:15:11.018Z,96.34
2023-04-10T21:17:39.332Z,96.43
2023-04-10T21:20:07.989Z,96.53
2023-04-10T21:22:38.342Z,96.70
2023-04-10T21:25:06.795Z,96.82
2023-04-10T21:27:38.700Z,96.88
2023-04-10T21:30:07.882Z,97.02
2023-04-10T21:32:36.630Z,97.00
2023-04-10T21:35:05.701Z,97.03
2023-04-10T21:37:33.911Z,96.92
2023-04-10T21:40:02.245Z,96.97
2023-04-10T21:42:30.494Z,96.84
2023-04-10T21:44:58.394Z,96.80
2023-04-10T21:47:26.224Z,96.82
2023-04-10T21:49:54.024Z,96.69
2023-04-10T21:52:28.419Z,96.73
2023-04-10T21:54:57.020Z,96.62
2023-04-10T21:57:25.000Z,96.53
2023-04-10T21:59:53.148Z,96.64
2023-04-10T22:02:21.066Z,96.48
2023-04-10T22:04:54.250Z,96.48
2023-04-10T22:07:22.828Z,96.42
2023-04-10T22:09:51.165Z,96.29
2023-04-10T22:12:19.099Z,96.07
2023-04-10T22:14:56.556Z,95.92
2023-04-10T22:17:24.629Z,95.93
2023-04-10T22:19:52.703Z,95.86
2023-04-10T22:22:21.231Z,95.82
2023-04-10T22:24:49.249Z,95.66
2023-04-10T22:27:23.371Z,95.49
2023-04-10T22:30:00.241Z,95.24
2023-04-10T22:32:32.721Z,95.24
2023-04-10T22:35:02.816Z,95.34
2023-04-10T22:37:31.345Z,95.41
2023-04-10T22:40:00.711Z,95.28
2023-04-10T22:42:31.173Z,95.10
2023-04-10T22:44:59.868Z,95.05
2023-04-10T22:47:27.781Z,94.98
2023-04-10T22:49:55.781Z,94.95
2023-04-10T22:52:27.206Z,94.64
2023-04-10T22:54:55.236Z,94.66
2023-04-10T22:57:23.027Z,94.79
2023-04-10T22:59:52.031Z,94.79
2023-04-10T23:02:20.109Z,94.85
2023-04-10T23:04:48.308Z,94.92
2023-04-10T23:07:16.505Z,94.86
2023-04-10T23:09:44.440Z,94.85
2023-04-10T23:12:17.714Z,94.73
2023-04-10T23:14:46.807Z,94.60
2023-04-10T23:17:14.680Z,94.44
2023-04-10T23:19:46.167Z,94.30
2023-04-10T23:22:14.204Z,94.08
2023-04-10T23:24:42.064Z,94.07
2023-04-10T23:27:13.312Z,94.27
2023-04-10T23:29:41.794Z,94.47
2023-04-10T23:32:09.781Z,94.61
2023-04-10T23:34:38.907Z,94.70
2023-04-10T23:37:06.852Z,94.77
2023-04-10T23:39:34.896Z,94.65
2023-04-10T23:42:04.092Z,94.48
2023-04-10T23:44:32.319Z,94.50
2023-04-10T23:47:00.221Z,94.53
2023-04-10T23:49:28.401Z,94.50
2023-04-10T23:51:56.279Z,94.50
2023-04-10T23:54:32.540Z,94.38
2023-04-10T23:57:00.560Z,94.33
2023-04-10T23:59:28.784Z,94.33
